createdAt,value
2023-02-22T00:01:51.119Z,3.77
2023-02-22T00:04:53.793Z,3.42
2023-02-22T00:07:58.524Z,3.17
2023-02-22T00:11:08.330Z,3.67
2023-02-22T00:14:09.866Z,3.80
2023-02-22T00:17:13.490Z,3.78
2023-02-22T00:20:19.911Z,3.63
2023-02-22T00:23:23.021Z,3.60
2023-02-22T00:26:24.524Z,3.45
2023-02-22T00:29:26.500Z,3.60
2023-02-22T00:32:27.997Z,3.30
2023-02-22T00:35:30.971Z,3.45
2023-02-22T00:38:32.594Z,3.30
2023-02-22T00:41:34.361Z,3.70
2023-02-22T00:44:37.675Z,3.65
2023-02-22T00:47:39.209Z,3.47
2023-02-22T00:50:40.842Z,3.53
2023-02-22T00:53:42.847Z,3.50
2023-02-22T00:56:44.296Z,3.63
2023-02-22T00:59:45.777Z,3.72
2023-02-22T01:02:50.692Z,3.42
2023-02-22T01:05:52.483Z,3.80
2023-02-22T01:08:53.944Z,3.90
2023-02-22T01:11:56.789Z,3.88
2023-02-22T01:14:58.381Z,3.30
2023-02-22T01:18:00.033Z,3.63
2023-02-22T01:21:02.470Z,3.58
2023-02-22T01:24:04.122Z,3.30
2023-02-22T01:27:05.604Z,3.55
2023-02-22T01:30:08.526Z,3.15
2023-02-22T01:33:12.722Z,3.10
2023-02-22T01:39:17.807Z,3.00
2023-02-22T01:42:19.430Z,3.72
2023-02-22T01:45:35.648Z,3.58
2023-02-22T01:49:00.603Z,2.80
2023-02-22T01:52:05.559Z,3.20
2023-02-22T01:55:07.277Z,3.85
2023-02-22T01:58:09.590Z,3.28
2023-02-22T02:01:13.170Z,3.08
2023-02-22T02:04:20.699Z,2.80
2023-02-22T02:07:23.945Z,3.75
2023-02-22T02:10:28.008Z,2.70
2023-02-22T02:13:29.797Z,3.50
2023-02-22T02:16:41.834Z,3.25
2023-02-22T02:19:44.634Z,3.42
2023-02-22T02:22:54.832Z,3.20
2023-02-22T02:26:23.740Z,2.90
2023-02-22T02:29:43.980Z,3.42
2023-02-22T02:32:53.974Z,3.38
2023-02-22T02:36:18.237Z,4.38
2023-02-22T02:39:32.044Z,4.30
2023-02-22T02:42:38.757Z,4.53
2023-02-22T02:45:47.540Z,4.13
2023-02-22T02:48:58.537Z,4.30
2023-02-22T02:52:02.732Z,3.90
2023-02-22T02:58:07.946Z,4.28
2023-02-22T03:01:12.804Z,4.40
2023-02-22T03:04:40.386Z,4.63
2023-02-22T03:08:03.530Z,3.70
2023-02-22T03:11:15.291Z,4.03
2023-02-22T03:14:42.569Z,3.58
2023-02-22T03:17:47.704Z,4.80
2023-02-22T03:21:39.417Z,4.60
2023-02-22T03:24:55.898Z,3.90
2023-02-22T03:28:03.419Z,5.30
2023-02-22T03:31:10.912Z,4.03
2023-02-22T03:34:22.416Z,4.07
2023-02-22T03:37:29.067Z,3.90
2023-02-22T03:40:39.408Z,4.28
2023-02-22T03:43:49.393Z,3.58
2023-02-22T03:46:56.788Z,3.90
2023-02-22T03:50:08.943Z,3.75
2023-02-22T03:53:11.654Z,3.55
2023-02-22T03:59:25.378Z,4.05
2023-02-22T04:02:26.896Z,3.58
2023-02-22T04:05:28.442Z,3.45
2023-02-22T04:08:31.686Z,3.78
2023-02-22T04:11:34.004Z,3.78
2023-02-22T04:14:35.909Z,3.95
2023-02-22T04:17:37.364Z,4.80
2023-02-22T04:20:39.747Z,4.07
2023-02-22T04:23:45.230Z,4.18
2023-02-22T04:26:47.309Z,4.03
2023-02-22T04:29:50.035Z,4.53
2023-02-22T04:32:51.906Z,4.57
2023-02-22T04:35:57.686Z,4.57
2023-02-22T04:39:00.271Z,4.07
2023-02-22T04:45:07.908Z,4.40
2023-02-22T04:48:10.742Z,3.95
2023-02-22T04:51:13.033Z,4.13
2023-02-22T04:54:22.514Z,4.43
2023-02-22T04:57:24.356Z,4.65
2023-02-22T05:00:26.088Z,4.28
2023-02-22T05:03:31.888Z,4.32
2023-02-22T05:06:33.846Z,3.90
2023-02-22T05:09:35.291Z,4.20
2023-02-22T05:12:37.139Z,4.15
2023-02-22T05:15:38.651Z,4.18
2023-02-22T05:18:40.150Z,4.25
2023-02-22T05:21:41.689Z,3.90
2023-02-22T05:24:43.839Z,5.80
2023-02-22T05:27:45.274Z,5.13
2023-02-22T05:30:46.921Z,4.28
2023-02-22T05:33:48.510Z,4.90
2023-02-22T05:36:50.075Z,4.97
2023-02-22T05:39:51.557Z,4.60
2023-02-22T05:42:53.412Z,5.25
2023-02-22T05:45:55.631Z,4.93
2023-02-22T05:48:57.193Z,4.80
2023-02-22T05:51:59.835Z,5.22
2023-02-22T05:55:01.375Z,6.00
2023-02-22T05:58:05.729Z,6.43
2023-02-22T06:01:07.271Z,6.28
2023-02-22T06:04:09.195Z,5.28
2023-02-22T06:07:10.686Z,5.63
2023-02-22T06:10:13.416Z,5.70
2023-02-22T06:13:14.853Z,5.30
2023-02-22T06:16:16.426Z,5.22
2023-02-22T06:19:17.943Z,6.43
2023-02-22T06:22:19.942Z,6.63
2023-02-22T06:25:24.195Z,6.80
2023-02-22T06:28:26.328Z,5.18
2023-02-22T06:31:27.934Z,5.30
2023-02-22T06:34:29.455Z,5.90
2023-02-22T06:37:31.020Z,6.13
2023-02-22T06:40:32.491Z,5.65
2023-02-22T06:43:33.976Z,5.80
2023-02-22T06:46:35.431Z,5.95
2023-02-22T06:49:37.023Z,5.60
2023-02-22T06:52:42.676Z,5.53
2023-02-22T06:55:44.211Z,5.75
2023-02-22T06:58:45.686Z,6.40
2023-02-22T07:01:47.131Z,5.45
2023-02-22T07:04:48.569Z,5.00
2023-02-22T07:07:52.684Z,5.65
2023-02-22T07:13:55.830Z,5.95
2023-02-22T07:16:57.313Z,7.20
2023-02-22T07:19:58.748Z,7.15
2023-02-22T07:23:01.228Z,7.10
2023-02-22T07:26:05.403Z,6.88
2023-02-22T07:32:08.602Z,7.18
2023-02-22T07:35:18.957Z,7.43
2023-02-22T07:38:21.101Z,10.25
2023-02-22T07:41:23.042Z,13.70
2023-02-22T07:44:24.509Z,10.70
2023-02-22T07:47:25.950Z,6.30
2023-02-22T07:50:30.669Z,7.40
2023-02-22T07:53:33.563Z,7.15
2023-02-22T07:56:35.026Z,6.50
2023-02-22T07:59:36.613Z,6.68
2023-02-22T08:02:38.117Z,6.65
2023-02-22T08:05:41.540Z,7.82
2023-02-22T08:08:43.012Z,6.70
2023-02-22T08:11:44.462Z,6.20
2023-02-22T08:14:45.992Z,6.40
2023-02-22T08:17:47.494Z,6.70
2023-02-22T08:20:51.915Z,6.20
2023-02-22T08:23:54.268Z,6.60
2023-02-22T08:26:55.869Z,7.07
2023-02-22T08:29:57.380Z,6.03
2023-02-22T08:32:59.579Z,6.60
2023-02-22T08:36:01.781Z,5.38
2023-02-22T08:39:03.324Z,4.93
2023-02-22T08:42:05.112Z,6.00
2023-02-22T08:45:07.087Z,5.45
2023-02-22T08:48:08.544Z,5.55
2023-02-22T08:51:09.964Z,6.38
2023-02-22T08:54:11.560Z,5.65
2023-02-22T08:57:13.555Z,7.20
2023-02-22T09:00:15.796Z,7.72
2023-02-22T09:03:17.421Z,6.55
2023-02-22T09:06:19.427Z,5.97
2023-02-22T09:09:21.482Z,6.20
2023-02-22T09:12:23.074Z,6.95
2023-02-22T09:15:25.651Z,6.55
2023-02-22T09:18:35.974Z,5.93
2023-02-22T09:21:45.017Z,5.32
2023-02-22T09:24:46.496Z,8.07
2023-02-22T09:27:53.285Z,8.20
2023-02-22T09:30:54.817Z,6.40
2023-02-22T09:33:56.373Z,6.13
2023-02-22T09:36:58.177Z,6.63
2023-02-22T09:39:59.803Z,6.80
2023-02-22T09:43:16.826Z,6.38
2023-02-22T09:46:45.594Z,5.93
2023-02-22T09:50:02.299Z,6.68
2023-02-22T09:53:08.047Z,7.03
2023-02-22T09:56:17.406Z,6.53
2023-02-22T09:59:27.146Z,7.82
2023-02-22T10:02:41.335Z,7.97
2023-02-22T10:05:48.829Z,7.75
2023-02-22T10:08:56.348Z,9.00
2023-02-22T10:12:02.770Z,9.75
2023-02-22T10:15:25.988Z,10.00
2023-02-22T10:18:42.482Z,9.77
2023-02-22T10:21:55.618Z,10.75
2023-02-22T10:25:04.969Z,11.25
2023-02-22T10:28:21.671Z,11.27
2023-02-22T10:31:28.178Z,13.00
2023-02-22T10:34:40.595Z,16.45
2023-02-22T10:37:42.217Z,16.17
2023-02-22T10:40:49.381Z,15.88
2023-02-22T10:43:50.901Z,16.23
2023-02-22T10:46:53.314Z,16.85
2023-02-22T10:50:00.748Z,17.08
2023-02-22T10:53:02.731Z,16.65
2023-02-22T10:56:18.440Z,16.48
2023-02-22T10:59:35.770Z,16.65
2023-02-22T11:02:37.602Z,17.10
2023-02-22T11:05:41.151Z,17.20
2023-02-22T11:08:43.505Z,15.80
2023-02-22T11:11:47.646Z,14.48
2023-02-22T11:14:49.276Z,14.80
2023-02-22T11:17:53.769Z,14.35
2023-02-22T11:21:04.352Z,14.55
2023-02-22T11:24:13.000Z,14.88
2023-02-22T11:27:32.693Z,15.38
2023-02-22T11:30:36.062Z,14.25
2023-02-22T11:33:38.619Z,14.98
2023-02-22T11:36:43.290Z,13.65
2023-02-22T11:39:45.497Z,12.93
2023-02-22T11:42:47.218Z,14.85
2023-02-22T11:46:03.811Z,14.57
2023-02-22T11:49:17.302Z,13.18
2023-02-22T11:52:34.641Z,13.10
2023-02-22T11:55:59.823Z,13.05
2023-02-22T11:59:15.680Z,13.43
2023-02-22T12:02:33.641Z,12.63
2023-02-22T12:05:37.241Z,13.15
2023-02-22T12:08:38.738Z,12.50
2023-02-22T12:11:50.785Z,12.88
2023-02-22T12:15:45.597Z,12.35
2023-02-22T12:19:09.265Z,13.73
2023-02-22T12:22:19.437Z,14.87
2023-02-22T12:25:31.753Z,15.32
2023-02-22T12:28:52.177Z,15.25
2023-02-22T12:32:16.312Z,15.77
2023-02-22T12:35:29.775Z,16.45
2023-02-22T12:38:46.833Z,15.23
2023-02-22T12:41:52.766Z,15.07
2023-02-22T12:45:00.839Z,14.18
2023-02-22T12:48:36.389Z,13.48
2023-02-22T12:51:54.237Z,16.83
2023-02-22T12:55:05.339Z,14.27
2023-02-22T12:58:15.771Z,13.50
2023-02-22T13:01:23.386Z,14.23
2023-02-22T13:04:25.337Z,15.00
2023-02-22T13:08:01.833Z,15.13
2023-02-22T13:11:28.310Z,15.35
2023-02-22T13:14:51.344Z,14.63
2023-02-22T13:18:06.938Z,16.58
2023-02-22T13:21:17.767Z,15.00
2023-02-22T13:24:31.210Z,15.25
2023-02-22T13:27:59.302Z,15.55
2023-02-22T13:31:19.459Z,14.75
2023-02-22T13:34:41.281Z,16.15
2023-02-22T13:38:01.451Z,16.73
2023-02-22T13:41:34.977Z,16.33
2023-02-22T13:45:04.498Z,15.85
2023-02-22T13:48:12.146Z,14.80
2023-02-22T13:51:37.857Z,14.70
2023-02-22T13:54:57.336Z,16.00
2023-02-22T13:58:03.409Z,14.15
2023-02-22T14:01:04.869Z,15.50
2023-02-22T14:04:29.045Z,14.55
2023-02-22T14:07:33.705Z,15.00
2023-02-22T14:10:55.718Z,14.98
2023-02-22T14:14:00.870Z,15.40
2023-02-22T14:17:25.185Z,15.30
2023-02-22T14:20:35.157Z,15.25
2023-02-22T14:23:41.808Z,16.05
2023-02-22T14:26:56.380Z,14.55
2023-02-22T14:30:00.452Z,15.63
2023-02-22T14:36:04.331Z,14.90
2023-02-22T14:39:12.506Z,15.55
2023-02-22T14:42:19.290Z,14.60
2023-02-22T14:45:33.258Z,15.80
2023-02-22T14:48:43.204Z,14.57
2023-02-22T14:51:59.539Z,16.40
2023-02-22T14:55:25.492Z,14.68
2023-02-22T14:58:46.700Z,16.08
2023-02-22T15:01:58.707Z,17.05
2023-02-22T15:05:07.739Z,16.17
2023-02-22T15:08:09.523Z,15.98
2023-02-22T15:11:23.495Z,15.25
2023-02-22T15:14:26.806Z,15.10
2023-02-22T15:17:28.611Z,15.02
2023-02-22T15:20:30.317Z,16.48
2023-02-22T15:23:41.764Z,17.38
2023-02-22T15:26:59.240Z,15.75
2023-02-22T15:30:05.895Z,15.98
2023-02-22T15:33:16.854Z,15.32
2023-02-22T15:36:19.773Z,17.00
2023-02-22T15:39:33.100Z,17.50
2023-02-22T15:42:43.885Z,16.33
2023-02-22T15:45:46.040Z,17.38
2023-02-22T15:49:04.681Z,16.80
2023-02-22T15:52:26.510Z,16.75
2023-02-22T15:55:40.404Z,17.33
2023-02-22T15:58:44.101Z,17.65
2023-02-22T16:01:48.599Z,17.70
2023-02-22T16:04:59.781Z,17.65
2023-02-22T16:08:01.540Z,16.75
2023-02-22T16:11:12.892Z,17.80
2023-02-22T16:14:52.310Z,18.80
2023-02-22T16:18:02.115Z,19.33
2023-02-22T16:21:12.864Z,19.23
2023-02-22T16:24:26.453Z,18.23
2023-02-22T16:27:28.185Z,18.97
2023-02-22T16:30:35.360Z,19.13
2023-02-22T16:33:38.754Z,18.27
2023-02-22T16:36:44.758Z,18.25
2023-02-22T16:39:46.266Z,17.60
2023-02-22T16:42:48.088Z,18.65
2023-02-22T16:45:50.074Z,16.83
2023-02-22T16:48:51.696Z,18.42
2023-02-22T16:51:59.756Z,25.98
2023-02-22T16:55:02.052Z,22.05
2023-02-22T16:58:04.586Z,19.40
2023-02-22T17:01:06.499Z,18.38
2023-02-22T17:04:15.695Z,18.77
2023-02-22T17:07:24.039Z,17.65
2023-02-22T17:10:26.749Z,17.30
2023-02-22T17:13:29.369Z,17.38
2023-02-22T17:16:31.243Z,17.45
2023-02-22T17:19:32.772Z,17.45
2023-02-22T17:22:34.212Z,17.52
2023-02-22T17:25:38.452Z,17.52
2023-02-22T17:28:40.529Z,19.05
2023-02-22T17:31:42.163Z,18.48
2023-02-22T17:34:43.640Z,20.35
2023-02-22T17:37:47.072Z,19.45
2023-02-22T17:40:48.732Z,18.77
2023-02-22T17:43:50.640Z,18.92
2023-02-22T17:46:53.172Z,19.23
2023-02-22T17:49:57.885Z,19.55
2023-02-22T17:53:03.325Z,18.83
2023-02-22T17:56:10.495Z,18.88
2023-02-22T17:59:12.004Z,17.95
2023-02-22T18:02:13.537Z,16.80
2023-02-22T18:05:17.853Z,17.90
2023-02-22T18:08:19.664Z,18.80
2023-02-22T18:11:26.145Z,18.20
2023-02-22T18:14:27.743Z,17.52
2023-02-22T18:17:29.241Z,16.85
2023-02-22T18:20:31.436Z,16.63
2023-02-22T18:23:33.898Z,17.10
2023-02-22T18:26:35.621Z,17.65
2023-02-22T18:29:37.314Z,17.65
2023-02-22T18:32:39.700Z,16.80
2023-02-22T18:35:44.888Z,16.52
2023-02-22T18:38:46.396Z,16.13
2023-02-22T18:41:48.744Z,14.82
2023-02-22T18:44:51.088Z,14.88
2023-02-22T18:47:52.599Z,13.52
2023-02-22T18:50:54.093Z,12.43
2023-02-22T18:54:00.286Z,13.30
2023-02-22T18:57:02.154Z,10.88
2023-02-22T19:00:04.697Z,10.27
2023-02-22T19:03:07.501Z,10.52
2023-02-22T19:06:09.790Z,8.48
2023-02-22T19:09:11.300Z,9.18
2023-02-22T19:12:12.827Z,9.25
2023-02-22T19:15:14.458Z,9.00
2023-02-22T19:18:15.994Z,9.95
2023-02-22T19:21:19.003Z,13.27
2023-02-22T19:24:20.881Z,8.27
2023-02-22T19:27:22.580Z,8.38
2023-02-22T19:30:25.271Z,7.50
2023-02-22T19:33:27.752Z,6.40
2023-02-22T19:36:29.371Z,6.13
2023-02-22T19:39:32.872Z,6.90
2023-02-22T19:42:34.596Z,7.35
2023-02-22T19:45:39.669Z,5.82
2023-02-22T19:48:41.248Z,6.10
2023-02-22T19:51:42.757Z,6.60
2023-02-22T19:54:44.892Z,6.07
2023-02-22T19:57:47.127Z,5.78
2023-02-22T20:00:48.650Z,5.80
2023-02-22T20:04:10.960Z,6.65
2023-02-22T20:07:12.456Z,6.47
2023-02-22T20:10:15.062Z,6.10
2023-02-22T20:13:17.087Z,6.68
2023-02-22T20:16:18.753Z,6.07
2023-02-22T20:19:22.388Z,6.22
2023-02-22T20:22:23.998Z,6.32
2023-02-22T20:25:25.527Z,6.63
2023-02-22T20:28:27.365Z,7.80
2023-02-22T20:31:29.565Z,7.13
2023-02-22T20:34:33.195Z,7.03
2023-02-22T20:37:35.502Z,7.43
2023-02-22T20:40:37.445Z,7.63
2023-02-22T20:43:39.664Z,7.65
2023-02-22T20:46:42.837Z,7.40
2023-02-22T20:49:44.403Z,7.80
2023-02-22T20:52:45.829Z,7.50
2023-02-22T20:55:51.638Z,7.32
2023-02-22T20:58:55.358Z,6.65
2023-02-22T21:01:57.144Z,7.18
2023-02-22T21:04:58.741Z,7.82
2023-02-22T21:08:00.950Z,7.35
2023-02-22T21:11:02.456Z,6.72
2023-02-22T21:14:03.978Z,7.65
2023-02-22T21:17:07.365Z,7.72
2023-02-22T21:20:12.501Z,7.47
2023-02-22T21:23:15.820Z,7.07
2023-02-22T21:26:20.520Z,8.53
2023-02-22T21:29:21.971Z,10.25
2023-02-22T21:32:23.447Z,9.27
2023-02-22T21:35:25.758Z,9.50
2023-02-22T21:38:27.450Z,8.73
2023-02-22T21:41:30.590Z,7.07
2023-02-22T21:44:32.211Z,8.48
2023-02-22T21:47:35.801Z,8.52
2023-02-22T21:50:37.719Z,8.68
2023-02-22T21:53:46.909Z,8.55
2023-02-22T21:56:49.594Z,8.18
2023-02-22T21:59:53.093Z,8.25
2023-02-22T22:03:05.796Z,8.52
2023-02-22T22:06:10.783Z,7.60
2023-02-22T22:09:18.230Z,7.63
2023-02-22T22:12:25.883Z,7.40
2023-02-22T22:15:31.544Z,7.22
2023-02-22T22:18:33.058Z,6.70
2023-02-22T22:21:34.657Z,6.50
2023-02-22T22:24:36.822Z,7.68
2023-02-22T22:27:39.598Z,6.13
2023-02-22T22:30:41.038Z,6.70
2023-02-22T22:33:44.213Z,6.97
2023-02-22T22:36:46.100Z,7.55
2023-02-22T22:39:47.608Z,6.03
2023-02-22T22:42:49.093Z,6.53
2023-02-22T22:45:50.602Z,7.43
2023-02-22T22:48:52.096Z,6.25
2023-02-22T22:51:54.481Z,7.38
2023-02-22T22:54:55.967Z,7.10
2023-02-22T22:57:58.797Z,7.18
2023-02-22T23:01:06.677Z,6.90
2023-02-22T23:04:13.196Z,7.00
2023-02-22T23:07:14.661Z,6.65
2023-02-22T23:10:16.377Z,7.30
2023-02-22T23:13:17.839Z,7.28
2023-02-22T23:16:19.791Z,6.88
2023-02-22T23:19:21.321Z,6.85
2023-02-22T23:22:23.038Z,6.60
2023-02-22T23:25:24.837Z,6.57
2023-02-22T23:28:26.261Z,6.32
2023-02-22T23:31:32.199Z,5.97
2023-02-22T23:34:35.869Z,6.20
2023-02-22T23:37:39.794Z,5.57
2023-02-22T23:40:42.353Z,6.90
2023-02-22T23:43:45.244Z,6.20
2023-02-22T23:51:10.544Z,6.22
2023-02-22T23:54:14.915Z,5.50
2023-02-22T23:57:17.567Z,6.28
